sensor_id;sensor_type;location;lat;lon;timestamp;temperature;humidity
13606;DHT22;6874;52.084;5.090;2023-06-24T00:01:15;20.90;72.50
13606;DHT22;6874;52.084;5.090;2023-06-24T00:03:40;21.00;72.60
13606;DHT22;6874;52.084;5.090;2023-06-24T00:06:08;20.90;72.70
13606;DHT22;6874;52.084;5.090;2023-06-24T00:08:34;20.90;72.80
13606;DHT22;6874;52.084;5.090;2023-06-24T00:11:03;20.80;72.80
13606;DHT22;6874;52.084;5.090;2023-06-24T00:13:29;20.80;73.70
13606;DHT22;6874;52.084;5.090;2023-06-24T00:15:55;20.80;72.90
13606;DHT22;6874;52.084;5.090;2023-06-24T00:18:21;20.80;73.00
13606;DHT22;6874;52.084;5.090;2023-06-24T00:20:50;20.70;73.00
13606;DHT22;6874;52.084;5.090;2023-06-24T00:23:17;20.70;73.20
13606;DHT22;6874;52.084;5.090;2023-06-24T00:25:43;20.70;73.40
13606;DHT22;6874;52.084;5.090;2023-06-24T00:28:09;20.70;73.10
13606;DHT22;6874;52.084;5.090;2023-06-24T00:30:34;20.70;73.40
13606;DHT22;6874;52.084;5.090;2023-06-24T00:33:00;20.60;73.20
13606;DHT22;6874;52.084;5.090;2023-06-24T00:35:26;20.60;73.20
13606;DHT22;6874;52.084;5.090;2023-06-24T00:37:51;20.60;73.40
13606;DHT22;6874;52.084;5.090;2023-06-24T00:40:24;20.60;73.70
13606;DHT22;6874;52.084;5.090;2023-06-24T00:42:50;20.50;73.70
13606;DHT22;6874;52.084;5.090;2023-06-24T00:45:15;20.50;73.70
13606;DHT22;6874;52.084;5.090;2023-06-24T00:47:43;20.50;74.00
13606;DHT22;6874;52.084;5.090;2023-06-24T00:50:09;20.50;74.10
13606;DHT22;6874;52.084;5.090;2023-06-24T00:52:37;20.40;74.00
13606;DHT22;6874;52.084;5.090;2023-06-24T00:55:10;20.40;74.00
13606;DHT22;6874;52.084;5.090;2023-06-24T00:57:37;20.40;74.00
13606;DHT22;6874;52.084;5.090;2023-06-24T01:00:03;20.30;74.00
13606;DHT22;6874;52.084;5.090;2023-06-24T01:02:34;20.30;74.30
13606;DHT22;6874;52.084;5.090;2023-06-24T01:05:03;20.30;74.00
13606;DHT22;6874;52.084;5.090;2023-06-24T01:07:33;20.30;74.50
13606;DHT22;6874;52.084;5.090;2023-06-24T01:10:03;20.30;74.80
13606;DHT22;6874;52.084;5.090;2023-06-24T01:12:40;20.30;74.90
13606;DHT22;6874;52.084;5.090;2023-06-24T01:15:07;20.30;74.70
13606;DHT22;6874;52.084;5.090;2023-06-24T01:22:37;20.10;74.80
13606;DHT22;6874;52.084;5.090;2023-06-24T01:28:16;20.10;74.80
13606;DHT22;6874;52.084;5.090;2023-06-24T01:33:41;20.00;75.10
13606;DHT22;6874;52.084;5.090;2023-06-24T01:36:11;20.00;75.40
13606;DHT22;6874;52.084;5.090;2023-06-24T01:38:52;20.00;75.10
13606;DHT22;6874;52.084;5.090;2023-06-24T01:41:23;19.90;75.30
13606;DHT22;6874;52.084;5.090;2023-06-24T01:43:52;19.90;74.80
13606;DHT22;6874;52.084;5.090;2023-06-24T01:46:23;19.90;74.80
13606;DHT22;6874;52.084;5.090;2023-06-24T01:48:53;19.80;75.20
13606;DHT22;6874;52.084;5.090;2023-06-24T01:51:20;19.80;75.30
13606;DHT22;6874;52.084;5.090;2023-06-24T01:54:00;19.80;75.20
13606;DHT22;6874;52.084;5.090;2023-06-24T01:56:27;19.80;75.30
13606;DHT22;6874;52.084;5.090;2023-06-24T01:58:56;19.70;75.10
13606;DHT22;6874;52.084;5.090;2023-06-24T02:01:23;19.70;75.20
13606;DHT22;6874;52.084;5.090;2023-06-24T02:03:50;19.70;75.20
13606;DHT22;6874;52.084;5.090;2023-06-24T02:06:19;19.70;75.80
13606;DHT22;6874;52.084;5.090;2023-06-24T02:08:48;19.60;75.30
13606;DHT22;6874;52.084;5.090;2023-06-24T02:11:15;19.60;75.40
13606;DHT22;6874;52.084;5.090;2023-06-24T02:13:42;19.60;75.50
13606;DHT22;6874;52.084;5.090;2023-06-24T02:16:10;19.60;75.50
13606;DHT22;6874;52.084;5.090;2023-06-24T02:18:38;19.50;75.60
13606;DHT22;6874;52.084;5.090;2023-06-24T02:21:08;19.50;75.70
13606;DHT22;6874;52.084;5.090;2023-06-24T02:23:35;19.50;76.10
13606;DHT22;6874;52.084;5.090;2023-06-24T02:26:03;19.40;75.80
13606;DHT22;6874;52.084;5.090;2023-06-24T02:28:30;19.40;76.10
13606;DHT22;6874;52.084;5.090;2023-06-24T02:30:57;19.40;75.90
13606;DHT22;6874;52.084;5.090;2023-06-24T02:33:23;19.40;75.80
13606;DHT22;6874;52.084;5.090;2023-06-24T02:35:49;19.30;76.10
13606;DHT22;6874;52.084;5.090;2023-06-24T02:38:14;19.30;76.10
13606;DHT22;6874;52.084;5.090;2023-06-24T02:40:43;19.30;75.80
13606;DHT22;6874;52.084;5.090;2023-06-24T02:43:10;19.30;76.90
13606;DHT22;6874;52.084;5.090;2023-06-24T02:45:36;19.30;75.80
13606;DHT22;6874;52.084;5.090;2023-06-24T02:48:02;19.20;76.00
13606;DHT22;6874;52.084;5.090;2023-06-24T02:50:28;19.20;76.10
13606;DHT22;6874;52.084;5.090;2023-06-24T02:52:54;19.20;75.80
13606;DHT22;6874;52.084;5.090;2023-06-24T02:55:21;19.10;76.70
13606;DHT22;6874;52.084;5.090;2023-06-24T02:57:47;19.10;75.80
13606;DHT22;6874;52.084;5.090;2023-06-24T03:00:13;19.10;76.40
13606;DHT22;6874;52.084;5.090;2023-06-24T03:02:41;19.10;76.30
13606;DHT22;6874;52.084;5.090;2023-06-24T03:05:08;19.00;76.20
13606;DHT22;6874;52.084;5.090;2023-06-24T03:07:34;19.00;76.20
13606;DHT22;6874;52.084;5.090;2023-06-24T03:10:03;19.00;76.10
13606;DHT22;6874;52.084;5.090;2023-06-24T03:12:29;19.00;76.20
13606;DHT22;6874;52.084;5.090;2023-06-24T03:14:54;18.90;76.10
13606;DHT22;6874;52.084;5.090;2023-06-24T03:17:20;18.90;76.40
13606;DHT22;6874;52.084;5.090;2023-06-24T03:19:46;18.90;76.10
13606;DHT22;6874;52.084;5.090;2023-06-24T03:22:14;18.80;76.00
13606;DHT22;6874;52.084;5.090;2023-06-24T03:24:42;18.80;76.30
13606;DHT22;6874;52.084;5.090;2023-06-24T03:27:08;18.80;76.00
13606;DHT22;6874;52.084;5.090;2023-06-24T03:29:33;18.70;76.20
13606;DHT22;6874;52.084;5.090;2023-06-24T03:31:59;18.70;76.20
13606;DHT22;6874;52.084;5.090;2023-06-24T03:34:24;18.70;75.90
13606;DHT22;6874;52.084;5.090;2023-06-24T03:36:53;18.60;76.00
13606;DHT22;6874;52.084;5.090;2023-06-24T03:39:20;18.60;76.00
13606;DHT22;6874;52.084;5.090;2023-06-24T03:41:46;18.60;76.20
13606;DHT22;6874;52.084;5.090;2023-06-24T03:44:12;18.60;76.00
13606;DHT22;6874;52.084;5.090;2023-06-24T03:46:37;18.60;76.50
13606;DHT22;6874;52.084;5.090;2023-06-24T03:49:03;18.60;76.30
13606;DHT22;6874;52.084;5.090;2023-06-24T03:51:29;18.50;76.40
13606;DHT22;6874;52.084;5.090;2023-06-24T03:53:55;18.50;76.10
13606;DHT22;6874;52.084;5.090;2023-06-24T03:56:20;18.50;76.20
13606;DHT22;6874;52.084;5.090;2023-06-24T03:58:46;18.60;76.40
13606;DHT22;6874;52.084;5.090;2023-06-24T04:01:11;18.50;76.40
13606;DHT22;6874;52.084;5.090;2023-06-24T04:03:37;18.40;76.20
13606;DHT22;6874;52.084;5.090;2023-06-24T04:06:03;18.40;76.30
13606;DHT22;6874;52.084;5.090;2023-06-24T04:08:28;18.30;76.10
13606;DHT22;6874;52.084;5.090;2023-06-24T04:10:57;18.40;76.30
13606;DHT22;6874;52.084;5.090;2023-06-24T04:13:25;18.40;76.30
13606;DHT22;6874;52.084;5.090;2023-06-24T04:15:51;18.40;76.40
13606;DHT22;6874;52.084;5.090;2023-06-24T04:18:18;18.30;76.20
13606;DHT22;6874;52.084;5.090;2023-06-24T04:20:44;18.30;76.20
13606;DHT22;6874;52.084;5.090;2023-06-24T04:23:09;18.30;76.40
13606;DHT22;6874;52.084;5.090;2023-06-24T04:25:36;18.30;76.30
13606;DHT22;6874;52.084;5.090;2023-06-24T04:28:03;18.30;76.40
13606;DHT22;6874;52.084;5.090;2023-06-24T04:30:30;18.30;76.50
13606;DHT22;6874;52.084;5.090;2023-06-24T04:32:55;18.30;76.60
13606;DHT22;6874;52.084;5.090;2023-06-24T04:35:21;18.20;76.30
13606;DHT22;6874;52.084;5.090;2023-06-24T04:37:47;18.20;76.40
13606;DHT22;6874;52.084;5.090;2023-06-24T04:40:16;18.20;76.50
13606;DHT22;6874;52.084;5.090;2023-06-24T04:42:42;18.20;76.60
13606;DHT22;6874;52.084;5.090;2023-06-24T04:45:08;18.20;76.50
13606;DHT22;6874;52.084;5.090;2023-06-24T04:47:33;18.20;76.50
13606;DHT22;6874;52.084;5.090;2023-06-24T04:49:59;18.20;76.50
13606;DHT22;6874;52.084;5.090;2023-06-24T04:52:25;18.20;76.50
13606;DHT22;6874;52.084;5.090;2023-06-24T04:54:50;18.20;76.50
13606;DHT22;6874;52.084;5.090;2023-06-24T04:57:24;18.20;76.40
13606;DHT22;6874;52.084;5.090;2023-06-24T04:59:50;18.20;76.60
13606;DHT22;6874;52.084;5.090;2023-06-24T05:02:15;18.20;76.60
13606;DHT22;6874;52.084;5.090;2023-06-24T05:04:41;18.10;76.40
13606;DHT22;6874;52.084;5.090;2023-06-24T05:07:06;18.10;76.50
13606;DHT22;6874;52.084;5.090;2023-06-24T05:09:32;18.20;76.50
13606;DHT22;6874;52.084;5.090;2023-06-24T05:11:58;18.10;76.40
13606;DHT22;6874;52.084;5.090;2023-06-24T05:14:23;18.10;76.30
13606;DHT22;6874;52.084;5.090;2023-06-24T05:16:49;18.20;76.20
13606;DHT22;6874;52.084;5.090;2023-06-24T05:19:14;18.20;76.70
13606;DHT22;6874;52.084;5.090;2023-06-24T05:21:41;18.20;76.50
13606;DHT22;6874;52.084;5.090;2023-06-24T05:24:07;18.10;76.70
13606;DHT22;6874;52.084;5.090;2023-06-24T05:26:33;18.20;76.60
13606;DHT22;6874;52.084;5.090;2023-06-24T05:28:58;18.20;76.50
13606;DHT22;6874;52.084;5.090;2023-06-24T05:31:24;18.20;76.40
13606;DHT22;6874;52.084;5.090;2023-06-24T05:33:49;18.20;76.60
13606;DHT22;6874;52.084;5.090;2023-06-24T05:36:15;18.20;76.60
13606;DHT22;6874;52.084;5.090;2023-06-24T05:38:41;18.20;76.60
13606;DHT22;6874;52.084;5.090;2023-06-24T05:41:06;18.20;76.80
13606;DHT22;6874;52.084;5.090;2023-06-24T05:43:32;18.20;77.10
13606;DHT22;6874;52.084;5.090;2023-06-24T05:45:57;18.30;77.20
13606;DHT22;6874;52.084;5.090;2023-06-24T05:48:23;18.30;77.20
13606;DHT22;6874;52.084;5.090;2023-06-24T05:50:48;18.30;77.10
13606;DHT22;6874;52.084;5.090;2023-06-24T05:53:14;18.30;77.20
13606;DHT22;6874;52.084;5.090;2023-06-24T05:55:39;18.30;77.10
13606;DHT22;6874;52.084;5.090;2023-06-24T05:58:05;18.30;76.90
13606;DHT22;6874;52.084;5.090;2023-06-24T06:00:30;18.30;77.00
13606;DHT22;6874;52.084;5.090;2023-06-24T06:02:56;18.30;77.00
13606;DHT22;6874;52.084;5.090;2023-06-24T06:05:21;18.30;77.50
13606;DHT22;6874;52.084;5.090;2023-06-24T06:07:47;18.40;77.90
13606;DHT22;6874;52.084;5.090;2023-06-24T06:10:13;18.40;77.70
13606;DHT22;6874;52.084;5.090;2023-06-24T06:12:43;18.40;78.20
13606;DHT22;6874;52.084;5.090;2023-06-24T06:15:09;18.40;78.20
13606;DHT22;6874;52.084;5.090;2023-06-24T06:17:35;18.40;78.40
13606;DHT22;6874;52.084;5.090;2023-06-24T06:20:00;18.50;78.70
13606;DHT22;6874;52.084;5.090;2023-06-24T06:22:26;18.50;79.20
13606;DHT22;6874;52.084;5.090;2023-06-24T06:24:51;18.50;79.20
13606;DHT22;6874;52.084;5.090;2023-06-24T06:27:17;18.50;78.90
13606;DHT22;6874;52.084;5.090;2023-06-24T06:29:42;18.50;78.90
13606;DHT22;6874;52.084;5.090;2023-06-24T06:32:08;18.60;78.80
13606;DHT22;6874;52.084;5.090;2023-06-24T06:34:34;18.60;78.80
13606;DHT22;6874;52.084;5.090;2023-06-24T06:36:59;18.60;78.80
13606;DHT22;6874;52.084;5.090;2023-06-24T06:39:25;18.70;79.00
13606;DHT22;6874;52.084;5.090;2023-06-24T06:41:51;18.70;78.90
13606;DHT22;6874;52.084;5.090;2023-06-24T06:44:16;18.70;79.20
13606;DHT22;6874;52.084;5.090;2023-06-24T06:46:42;18.70;79.00
13606;DHT22;6874;52.084;5.090;2023-06-24T06:49:07;18.80;79.20
13606;DHT22;6874;52.084;5.090;2023-06-24T06:51:33;18.80;80.10
13606;DHT22;6874;52.084;5.090;2023-06-24T06:54:00;18.80;80.00
13606;DHT22;6874;52.084;5.090;2023-06-24T06:56:26;18.90;80.20
13606;DHT22;6874;52.084;5.090;2023-06-24T06:58:53;18.90;80.10
13606;DHT22;6874;52.084;5.090;2023-06-24T07:01:18;19.00;80.50
13606;DHT22;6874;52.084;5.090;2023-06-24T07:03:45;19.00;80.40
13606;DHT22;6874;52.084;5.090;2023-06-24T07:06:10;19.10;80.90
13606;DHT22;6874;52.084;5.090;2023-06-24T07:08:36;19.20;80.60
13606;DHT22;6874;52.084;5.090;2023-06-24T07:11:02;19.30;81.50
13606;DHT22;6874;52.084;5.090;2023-06-24T07:13:28;19.30;81.20
13606;DHT22;6874;52.084;5.090;2023-06-24T07:15:53;19.40;81.20
13606;DHT22;6874;52.084;5.090;2023-06-24T07:18:19;19.50;81.60
13606;DHT22;6874;52.084;5.090;2023-06-24T07:20:45;19.60;81.60
13606;DHT22;6874;52.084;5.090;2023-06-24T07:23:10;19.70;81.90
13606;DHT22;6874;52.084;5.090;2023-06-24T07:25:37;19.80;83.00
13606;DHT22;6874;52.084;5.090;2023-06-24T07:28:03;20.10;83.30
13606;DHT22;6874;52.084;5.090;2023-06-24T07:30:28;20.20;83.40
13606;DHT22;6874;52.084;5.090;2023-06-24T07:32:54;20.40;83.70
13606;DHT22;6874;52.084;5.090;2023-06-24T07:35:19;20.50;83.50
13606;DHT22;6874;52.084;5.090;2023-06-24T07:37:45;20.80;84.00
13606;DHT22;6874;52.084;5.090;2023-06-24T07:40:11;21.00;83.80
13606;DHT22;6874;52.084;5.090;2023-06-24T07:42:36;21.30;83.70
13606;DHT22;6874;52.084;5.090;2023-06-24T07:45:02;21.50;82.60
13606;DHT22;6874;52.084;5.090;2023-06-24T07:47:28;21.70;82.50
13606;DHT22;6874;52.084;5.090;2023-06-24T07:49:53;21.90;82.20
13606;DHT22;6874;52.084;5.090;2023-06-24T07:52:19;22.10;81.90
13606;DHT22;6874;52.084;5.090;2023-06-24T07:54:44;22.30;81.20
13606;DHT22;6874;52.084;5.090;2023-06-24T07:57:10;22.50;80.80
13606;DHT22;6874;52.084;5.090;2023-06-24T07:59:36;22.70;80.30
13606;DHT22;6874;52.084;5.090;2023-06-24T08:02:02;22.90;80.10
13606;DHT22;6874;52.084;5.090;2023-06-24T08:04:27;23.10;79.70
13606;DHT22;6874;52.084;5.090;2023-06-24T08:06:53;23.30;79.80
13606;DHT22;6874;52.084;5.090;2023-06-24T08:09:18;23.50;79.30
13606;DHT22;6874;52.084;5.090;2023-06-24T08:11:44;23.70;79.50
13606;DHT22;6874;52.084;5.090;2023-06-24T08:14:10;23.80;78.70
13606;DHT22;6874;52.084;5.090;2023-06-24T08:16:35;24.00;78.20
13606;DHT22;6874;52.084;5.090;2023-06-24T08:19:01;24.10;77.70
13606;DHT22;6874;52.084;5.090;2023-06-24T08:21:27;24.30;78.90
13606;DHT22;6874;52.084;5.090;2023-06-24T08:23:52;24.50;77.80
13606;DHT22;6874;52.084;5.090;2023-06-24T08:26:20;24.60;77.50
13606;DHT22;6874;52.084;5.090;2023-06-24T08:28:47;24.70;77.40
13606;DHT22;6874;52.084;5.090;2023-06-24T08:31:12;24.90;76.90
13606;DHT22;6874;52.084;5.090;2023-06-24T08:33:38;25.00;77.00
13606;DHT22;6874;52.084;5.090;2023-06-24T08:36:04;25.20;77.10
13606;DHT22;6874;52.084;5.090;2023-06-24T08:38:29;25.30;77.00
13606;DHT22;6874;52.084;5.090;2023-06-24T08:40:55;25.50;76.70
13606;DHT22;6874;52.084;5.090;2023-06-24T08:43:21;25.60;76.30
13606;DHT22;6874;52.084;5.090;2023-06-24T08:45:47;25.70;76.00
13606;DHT22;6874;52.084;5.090;2023-06-24T08:48:13;25.80;75.90
13606;DHT22;6874;52.084;5.090;2023-06-24T08:50:52;26.00;75.50
13606;DHT22;6874;52.084;5.090;2023-06-24T08:53:18;26.10;75.40
13606;DHT22;6874;52.084;5.090;2023-06-24T08:55:46;26.30;75.50
13606;DHT22;6874;52.084;5.090;2023-06-24T08:58:12;26.40;75.50
13606;DHT22;6874;52.084;5.090;2023-06-24T09:00:38;26.50;75.50
13606;DHT22;6874;52.084;5.090;2023-06-24T09:03:04;26.60;75.00
13606;DHT22;6874;52.084;5.090;2023-06-24T09:05:30;26.80;75.00
13606;DHT22;6874;52.084;5.090;2023-06-24T09:07:55;26.90;74.40
13606;DHT22;6874;52.084;5.090;2023-06-24T09:10:34;27.00;74.10
13606;DHT22;6874;52.084;5.090;2023-06-24T09:13:01;27.10;74.80
13606;DHT22;6874;52.084;5.090;2023-06-24T09:15:37;27.20;74.60
13606;DHT22;6874;52.084;5.090;2023-06-24T09:18:03;27.40;74.00
13606;DHT22;6874;52.084;5.090;2023-06-24T09:20:30;27.50;73.90
13606;DHT22;6874;52.084;5.090;2023-06-24T09:23:01;27.60;73.90
13606;DHT22;6874;52.084;5.090;2023-06-24T09:25:27;27.70;73.80
13606;DHT22;6874;52.084;5.090;2023-06-24T09:27:53;27.80;73.40
13606;DHT22;6874;52.084;5.090;2023-06-24T09:30:22;27.90;73.10
13606;DHT22;6874;52.084;5.090;2023-06-24T09:32:49;27.90;73.50
13606;DHT22;6874;52.084;5.090;2023-06-24T09:35:18;28.00;73.40
13606;DHT22;6874;52.084;5.090;2023-06-24T09:37:52;28.10;72.60
13606;DHT22;6874;52.084;5.090;2023-06-24T09:40:18;28.30;72.40
13606;DHT22;6874;52.084;5.090;2023-06-24T09:42:49;28.30;72.40
13606;DHT22;6874;52.084;5.090;2023-06-24T09:45:15;28.40;71.70
13606;DHT22;6874;52.084;5.090;2023-06-24T09:47:44;28.50;71.80
13606;DHT22;6874;52.084;5.090;2023-06-24T09:50:09;28.50;71.60
13606;DHT22;6874;52.084;5.090;2023-06-24T09:52:35;28.60;71.90
13606;DHT22;6874;52.084;5.090;2023-06-24T09:55:01;28.70;71.60
13606;DHT22;6874;52.084;5.090;2023-06-24T09:57:29;28.80;71.50
13606;DHT22;6874;52.084;5.090;2023-06-24T09:59:57;28.80;71.20
13606;DHT22;6874;52.084;5.090;2023-06-24T10:02:23;28.90;70.70
13606;DHT22;6874;52.084;5.090;2023-06-24T10:04:49;29.00;70.60
13606;DHT22;6874;52.084;5.090;2023-06-24T10:07:16;29.00;70.70
13606;DHT22;6874;52.084;5.090;2023-06-24T10:09:42;29.10;70.20
13606;DHT22;6874;52.084;5.090;2023-06-24T10:12:08;29.10;70.20
13606;DHT22;6874;52.084;5.090;2023-06-24T10:14:34;29.20;70.40
13606;DHT22;6874;52.084;5.090;2023-06-24T10:17:04;29.20;70.80
13606;DHT22;6874;52.084;5.090;2023-06-24T10:19:30;29.20;70.30
13606;DHT22;6874;52.084;5.090;2023-06-24T10:22:02;29.40;70.10
13606;DHT22;6874;52.084;5.090;2023-06-24T10:24:32;29.40;70.00
13606;DHT22;6874;52.084;5.090;2023-06-24T10:27:03;29.40;70.00
13606;DHT22;6874;52.084;5.090;2023-06-24T10:29:38;29.50;69.50
13606;DHT22;6874;52.084;5.090;2023-06-24T10:32:05;29.60;69.10
13606;DHT22;6874;52.084;5.090;2023-06-24T10:44:50;29.70;68.90
13606;DHT22;6874;52.084;5.090;2023-06-24T10:47:17;29.80;68.40
13606;DHT22;6874;52.084;5.090;2023-06-24T10:49:42;29.80;68.80
13606;DHT22;6874;52.084;5.090;2023-06-24T10:52:12;29.70;68.70
13606;DHT22;6874;52.084;5.090;2023-06-24T10:54:39;29.80;68.80
13606;DHT22;6874;52.084;5.090;2023-06-24T10:57:06;29.90;68.20
13606;DHT22;6874;52.084;5.090;2023-06-24T10:59:34;29.90;67.80
13606;DHT22;6874;52.084;5.090;2023-06-24T11:02:00;30.00;67.80
13606;DHT22;6874;52.084;5.090;2023-06-24T11:04:26;30.00;67.20
13606;DHT22;6874;52.084;5.090;2023-06-24T11:07:01;30.10;67.00
13606;DHT22;6874;52.084;5.090;2023-06-24T11:09:28;30.10;67.00
13606;DHT22;6874;52.084;5.090;2023-06-24T11:11:53;30.10;66.90
13606;DHT22;6874;52.084;5.090;2023-06-24T11:14:22;30.20;66.80
13606;DHT22;6874;52.084;5.090;2023-06-24T11:16:47;30.20;65.70
13606;DHT22;6874;52.084;5.090;2023-06-24T11:19:13;30.20;65.90
13606;DHT22;6874;52.084;5.090;2023-06-24T11:21:39;30.30;65.00
13606;DHT22;6874;52.084;5.090;2023-06-24T11:24:05;30.20;65.00
13606;DHT22;6874;52.084;5.090;2023-06-24T11:26:32;30.20;65.00
13606;DHT22;6874;52.084;5.090;2023-06-24T11:28:58;30.30;65.00
13606;DHT22;6874;52.084;5.090;2023-06-24T11:31:27;30.30;65.10
13606;DHT22;6874;52.084;5.090;2023-06-24T11:33:53;30.30;64.50
13606;DHT22;6874;52.084;5.090;2023-06-24T11:36:22;30.30;64.60
13606;DHT22;6874;52.084;5.090;2023-06-24T11:38:48;30.30;64.70
13606;DHT22;6874;52.084;5.090;2023-06-24T11:41:14;30.30;64.10
13606;DHT22;6874;52.084;5.090;2023-06-24T11:43:44;30.30;63.70
13606;DHT22;6874;52.084;5.090;2023-06-24T11:46:10;30.30;62.80
13606;DHT22;6874;52.084;5.090;2023-06-24T11:48:45;30.30;62.30
13606;DHT22;6874;52.084;5.090;2023-06-24T11:51:14;30.40;63.00
13606;DHT22;6874;52.084;5.090;2023-06-24T11:53:46;30.40;63.30
13606;DHT22;6874;52.084;5.090;2023-06-24T11:56:12;30.40;63.70
13606;DHT22;6874;52.084;5.090;2023-06-24T11:58:38;30.40;63.30
13606;DHT22;6874;52.084;5.090;2023-06-24T12:01:03;30.40;63.50
13606;DHT22;6874;52.084;5.090;2023-06-24T12:03:32;30.50;63.40
13606;DHT22;6874;52.084;5.090;2023-06-24T12:05:59;30.50;63.40
13606;DHT22;6874;52.084;5.090;2023-06-24T12:08:25;30.50;62.80
13606;DHT22;6874;52.084;5.090;2023-06-24T12:10:51;30.50;62.20
13606;DHT22;6874;52.084;5.090;2023-06-24T12:13:17;30.50;63.40
13606;DHT22;6874;52.084;5.090;2023-06-24T12:15:43;30.50;61.80
13606;DHT22;6874;52.084;5.090;2023-06-24T12:18:09;30.40;62.00
13606;DHT22;6874;52.084;5.090;2023-06-24T12:20:35;30.40;62.60
13606;DHT22;6874;52.084;5.090;2023-06-24T12:23:02;30.40;63.30
13606;DHT22;6874;52.084;5.090;2023-06-24T12:25:29;30.40;62.90
13606;DHT22;6874;52.084;5.090;2023-06-24T12:27:54;30.40;62.40
13606;DHT22;6874;52.084;5.090;2023-06-24T12:30:20;30.40;63.70
13606;DHT22;6874;52.084;5.090;2023-06-24T12:32:50;30.30;64.00
13606;DHT22;6874;52.084;5.090;2023-06-24T12:35:16;30.30;63.10
13606;DHT22;6874;52.084;5.090;2023-06-24T12:37:41;30.40;63.50
13606;DHT22;6874;52.084;5.090;2023-06-24T12:40:07;30.40;64.30
13606;DHT22;6874;52.084;5.090;2023-06-24T12:42:33;30.40;64.50
13606;DHT22;6874;52.084;5.090;2023-06-24T12:44:59;30.40;64.60
13606;DHT22;6874;52.084;5.090;2023-06-24T12:47:25;30.40;63.50
13606;DHT22;6874;52.084;5.090;2023-06-24T12:49:51;30.50;63.10
13606;DHT22;6874;52.084;5.090;2023-06-24T12:52:18;30.40;62.10
13606;DHT22;6874;52.084;5.090;2023-06-24T12:54:44;30.50;62.70
13606;DHT22;6874;52.084;5.090;2023-06-24T12:57:10;30.50;63.50
13606;DHT22;6874;52.084;5.090;2023-06-24T12:59:35;30.50;64.10
13606;DHT22;6874;52.084;5.090;2023-06-24T13:02:01;30.50;64.40
13606;DHT22;6874;52.084;5.090;2023-06-24T13:04:27;30.50;64.70
13606;DHT22;6874;52.084;5.090;2023-06-24T13:06:53;30.60;64.60
13606;DHT22;6874;52.084;5.090;2023-06-24T13:09:19;30.60;64.80
13606;DHT22;6874;52.084;5.090;2023-06-24T13:11:44;30.70;65.60
13606;DHT22;6874;52.084;5.090;2023-06-24T13:14:10;30.70;65.60
13606;DHT22;6874;52.084;5.090;2023-06-24T13:16:39;30.70;65.60
13606;DHT22;6874;52.084;5.090;2023-06-24T13:19:05;30.80;64.40
13606;DHT22;6874;52.084;5.090;2023-06-24T13:21:30;30.80;64.90
13606;DHT22;6874;52.084;5.090;2023-06-24T13:23:56;30.90;65.70
13606;DHT22;6874;52.084;5.090;2023-06-24T13:26:22;30.90;66.10
13606;DHT22;6874;52.084;5.090;2023-06-24T13:28:47;31.00;63.70
13606;DHT22;6874;52.084;5.090;2023-06-24T13:31:14;31.00;63.80
13606;DHT22;6874;52.084;5.090;2023-06-24T13:33:40;31.00;65.20
13606;DHT22;6874;52.084;5.090;2023-06-24T13:36:07;31.10;64.70
13606;DHT22;6874;52.084;5.090;2023-06-24T13:38:33;31.10;65.20
13606;DHT22;6874;52.084;5.090;2023-06-24T13:40:58;31.10;64.50
13606;DHT22;6874;52.084;5.090;2023-06-24T13:43:24;31.20;65.50
13606;DHT22;6874;52.084;5.090;2023-06-24T13:45:51;31.20;66.30
13606;DHT22;6874;52.084;5.090;2023-06-24T13:48:16;31.30;65.60
13606;DHT22;6874;52.084;5.090;2023-06-24T13:50:42;31.30;64.60
13606;DHT22;6874;52.084;5.090;2023-06-24T13:53:07;31.30;65.40
13606;DHT22;6874;52.084;5.090;2023-06-24T13:55:33;31.30;65.40
13606;DHT22;6874;52.084;5.090;2023-06-24T13:57:59;31.40;65.70
13606;DHT22;6874;52.084;5.090;2023-06-24T14:00:24;31.30;65.50
13606;DHT22;6874;52.084;5.090;2023-06-24T14:02:50;31.40;64.40
13606;DHT22;6874;52.084;5.090;2023-06-24T14:05:16;31.40;64.40
13606;DHT22;6874;52.084;5.090;2023-06-24T14:07:42;31.40;64.80
13606;DHT22;6874;52.084;5.090;2023-06-24T14:10:08;31.40;65.00
13606;DHT22;6874;52.084;5.090;2023-06-24T14:12:33;31.50;64.20
13606;DHT22;6874;52.084;5.090;2023-06-24T14:14:59;31.50;64.80
13606;DHT22;6874;52.084;5.090;2023-06-24T14:17:25;31.50;63.80
13606;DHT22;6874;52.084;5.090;2023-06-24T14:19:50;31.50;64.80
13606;DHT22;6874;52.084;5.090;2023-06-24T14:22:16;31.50;65.60
13606;DHT22;6874;52.084;5.090;2023-06-24T14:24:43;31.60;65.60
13606;DHT22;6874;52.084;5.090;2023-06-24T14:27:09;31.60;65.80
13606;DHT22;6874;52.084;5.090;2023-06-24T14:29:34;31.70;66.10
13606;DHT22;6874;52.084;5.090;2023-06-24T14:32:00;31.70;64.90
13606;DHT22;6874;52.084;5.090;2023-06-24T14:34:26;31.70;65.40
13606;DHT22;6874;52.084;5.090;2023-06-24T14:36:55;31.70;64.90
13606;DHT22;6874;52.084;5.090;2023-06-24T14:39:20;31.70;62.90
13606;DHT22;6874;52.084;5.090;2023-06-24T14:41:46;31.80;63.40
13606;DHT22;6874;52.084;5.090;2023-06-24T14:44:12;31.80;63.50
13606;DHT22;6874;52.084;5.090;2023-06-24T14:46:37;31.80;63.20
13606;DHT22;6874;52.084;5.090;2023-06-24T14:49:03;31.80;63.90
13606;DHT22;6874;52.084;5.090;2023-06-24T14:51:28;31.80;64.40
13606;DHT22;6874;52.084;5.090;2023-06-24T14:53:54;31.90;64.20
13606;DHT22;6874;52.084;5.090;2023-06-24T14:56:20;31.90;64.00
13606;DHT22;6874;52.084;5.090;2023-06-24T14:58:45;31.90;63.90
13606;DHT22;6874;52.084;5.090;2023-06-24T15:01:11;31.90;62.50
13606;DHT22;6874;52.084;5.090;2023-06-24T15:03:36;32.00;62.20
13606;DHT22;6874;52.084;5.090;2023-06-24T15:06:02;32.00;62.30
13606;DHT22;6874;52.084;5.090;2023-06-24T15:08:28;32.00;62.00
13606;DHT22;6874;52.084;5.090;2023-06-24T15:10:53;31.90;61.20
13606;DHT22;6874;52.084;5.090;2023-06-24T15:13:19;32.00;62.80
13606;DHT22;6874;52.084;5.090;2023-06-24T15:15:44;32.00;61.70
13606;DHT22;6874;52.084;5.090;2023-06-24T15:18:11;32.00;62.50
13606;DHT22;6874;52.084;5.090;2023-06-24T15:20:36;32.00;61.80
13606;DHT22;6874;52.084;5.090;2023-06-24T15:23:02;32.00;62.40
13606;DHT22;6874;52.084;5.090;2023-06-24T15:25:28;32.00;62.00
13606;DHT22;6874;52.084;5.090;2023-06-24T15:27:54;32.00;61.50
13606;DHT22;6874;52.084;5.090;2023-06-24T15:30:20;32.00;61.70
13606;DHT22;6874;52.084;5.090;2023-06-24T15:32:45;32.00;61.00
13606;DHT22;6874;52.084;5.090;2023-06-24T15:35:12;31.90;61.60
13606;DHT22;6874;52.084;5.090;2023-06-24T15:37:38;31.90;61.50
13606;DHT22;6874;52.084;5.090;2023-06-24T15:40:04;31.80;60.80
13606;DHT22;6874;52.084;5.090;2023-06-24T15:42:30;31.80;60.90
13606;DHT22;6874;52.084;5.090;2023-06-24T15:44:55;31.80;60.50
13606;DHT22;6874;52.084;5.090;2023-06-24T15:47:21;31.70;60.70
13606;DHT22;6874;52.084;5.090;2023-06-24T15:49:47;31.70;60.40
13606;DHT22;6874;52.084;5.090;2023-06-24T15:52:13;31.60;60.10
13606;DHT22;6874;52.084;5.090;2023-06-24T15:54:39;31.60;59.80
13606;DHT22;6874;52.084;5.090;2023-06-24T15:57:04;31.60;60.40
13606;DHT22;6874;52.084;5.090;2023-06-24T15:59:30;31.50;59.90
13606;DHT22;6874;52.084;5.090;2023-06-24T16:01:56;31.50;59.80